Time;durP1;ratioP1;P1;durP2;ratioP2;P2;SDS_P1;SDS_P2;PMS_P1;PMS_P2;Temp;Humidity;BMP_temperature;BMP_pressure;BME280_temperature;BME280_humidity;BME280_pressure;Samples;Min_cycle;Max_cycle;Signal;HPM_P1;HPM_P2
2023/10/06 00:00:18;;;;;;;;;;;;;;;16.85;54.26;102456.19;4938608;28;123828;-83
2023/10/06 00:02:45;;;;;;;;;;;;;;;16.86;54.21;102452.56;4951496;28;125197;-81
2023/10/06 00:05:13;;;;;;;;;;;;;;;16.87;54.17;102454.31;4964996;28;113980;-82
2023/10/06 00:07:40;;;;;;;;;;;;;;;16.86;54.12;102452.56;4950968;28;114913;-82
2023/10/06 00:10:20;;;;;;;;;;;;;;;16.86;54.28;102463.28;4949940;28;121988;-82
2023/10/06 00:12:51;;;;;;;;;;;;;;;16.85;54.25;102456.19;4933338;28;122657;-82
2023/10/06 00:15:26;;;;;;;;;;;;;;;16.84;54.15;102449.09;4949990;28;115098;-82
2023/10/06 00:17:56;;;;;;;;;;;;;;;16.82;54.07;102451.00;4922319;28;114801;-83
2023/10/06 00:20:31;;;;;;;;;;;;;;;16.80;54.10;102452.84;4914385;28;124045;-81
2023/10/06 00:23:04;;;;;;;;;;;;;;;16.78;54.30;102449.34;4931052;28;124260;-82
2023/10/06 00:25:35;;;;;;;;;;;;;;;16.77;54.14;102452.97;4936788;28;115925;-82
2023/10/06 00:28:14;;;;;;;;;;;;;;;16.76;54.39;102451.22;4944505;28;114863;-83
2023/10/06 00:30:41;;;;;;;;;;;;;;;16.75;54.33;102449.50;4930375;28;124313;-82
2023/10/06 00:33:10;;;;;;;;;;;;;;;16.73;54.25;102446.03;4932852;28;124195;-81
2023/10/06 00:35:38;;;;;;;;;;;;;;;16.72;54.28;102449.63;4932922;28;114940;-82
2023/10/06 00:38:17;;;;;;;;;;;;;;;16.70;54.41;102446.16;4947464;28;112773;-82
2023/10/06 00:40:50;;;;;;;;;;;;;;;16.67;54.40;102440.94;4946376;28;124164;-83
2023/10/06 00:43:30;;;;;;;;;;;;;;;16.65;54.36;102437.44;4944139;28;124337;-82
2023/10/06 00:46:00;;;;;;;;;;;;;;;16.65;54.29;102442.81;4941133;28;115468;-82
2023/10/06 00:48:29;;;;;;;;;;;;;;;16.64;54.37;102441.09;4936272;28;113517;-82
2023/10/06 00:50:57;;;;;;;;;;;;;;;16.63;54.41;102439.34;4944115;28;122421;-82
2023/10/06 00:53:31;;;;;;;;;;;;;;;16.63;54.32;102444.69;4930840;28;123128;-81
2023/10/06 00:56:10;;;;;;;;;;;;;;;16.62;54.39;102437.59;4944887;28;114934;-82
2023/10/06 00:58:41;;;;;;;;;;;;;;;16.62;54.59;102442.97;4954654;28;114953;-83
2023/10/06 01:01:12;;;;;;;;;;;;;;;16.60;54.49;102437.69;4932644;28;126693;-82
2023/10/06 01:03:44;;;;;;;;;;;;;;;16.60;54.32;102428.78;4924299;28;125416;-82
2023/10/06 01:06:13;;;;;;;;;;;;;;;16.59;54.51;102433.25;4950006;28;115167;-82
2023/10/06 01:08:45;;;;;;;;;;;;;;;16.58;54.45;102428.00;4936388;28;113481;-81
2023/10/06 01:11:14;;;;;;;;;;;;;;;16.55;54.42;102424.50;4935642;28;125376;-81
2023/10/06 01:13:52;;;;;;;;;;;;;;;16.54;54.52;102425.44;4951412;28;123616;-82
2023/10/06 01:16:25;;;;;;;;;;;;;;;16.54;54.57;102420.09;4937985;28;116413;-83
2023/10/06 01:18:52;;;;;;;;;;;;;;;16.52;54.33;102424.66;4952020;28;115341;-82
2023/10/06 01:21:28;;;;;;;;;;;;;;;16.51;54.47;102420.22;4938561;28;124656;-82
2023/10/06 01:23:58;;;;;;;;;;;;;;;16.51;54.49;102414.88;4951856;28;124217;-81
2023/10/06 01:26:25;;;;;;;;;;;;;;;16.51;54.44;102424.72;4953358;28;114282;-82
2023/10/06 01:28:53;;;;;;;;;;;;;;;16.49;54.52;102411.41;4951860;28;114593;-82
2023/10/06 01:31:20;;;;;;;;;;;;;;;16.48;54.56;102412.34;4941125;28;125301;-82
2023/10/06 01:33:47;;;;;;;;;;;;;;;16.46;54.57;102406.22;4938069;28;124444;-81
2023/10/06 01:36:14;;;;;;;;;;;;;;;16.45;54.49;102404.47;4932892;28;114063;-81
2023/10/06 01:38:44;;;;;;;;;;;;;;;16.46;54.62;102406.22;4951519;28;111782;-81
2023/10/06 01:41:11;;;;;;;;;;;;;;;16.45;54.63;102404.47;4921380;28;126125;-81
2023/10/06 01:43:38;;;;;;;;;;;;;;;16.44;54.56;102413.41;4939645;28;125291;-82
2023/10/06 01:46:12;;;;;;;;;;;;;;;16.43;54.60;102410.81;4955888;28;114979;-82
2023/10/06 01:48:39;;;;;;;;;;;;;;;16.41;54.64;102410.88;4939871;28;112921;-83
2023/10/06 01:51:10;;;;;;;;;;;;;;;16.41;54.72;102402.88;4943252;28;124595;-81
2023/10/06 01:53:40;;;;;;;;;;;;;;;16.42;54.65;102399.22;4933234;28;125156;-83
2023/10/06 01:56:08;;;;;;;;;;;;;;;16.42;54.75;102399.22;4948639;28;117176;-80
2023/10/06 01:58:36;;;;;;;;;;;;;;;16.43;54.80;102397.44;4921459;28;114377;-80
2023/10/06 02:01:05;;;;;;;;;;;;;;;16.42;54.71;102399.22;4952012;28;124462;-81
2023/10/06 02:03:38;;;;;;;;;;;;;;;16.41;54.66;102381.47;4952431;28;125016;-81
2023/10/06 02:06:05;;;;;;;;;;;;;;;16.41;54.67;102381.47;4947368;28;114161;-82
2023/10/06 02:08:33;;;;;;;;;;;;;;;16.39;54.79;102388.69;4962992;28;114972;-81
2023/10/06 02:11:01;;;;;;;;;;;;;;;16.38;54.64;102391.44;4944967;28;124402;-81
2023/10/06 02:13:29;;;;;;;;;;;;;;;16.37;54.61;102395.91;4947619;28;125145;-81
2023/10/06 02:16:00;;;;;;;;;;;;;;;16.35;54.80;102397.78;4931660;28;114313;-81
2023/10/06 02:18:36;;;;;;;;;;;;;;;16.33;54.83;102387.16;4948317;28;112903;-82
2023/10/06 02:21:07;;;;;;;;;;;;;;;16.33;54.92;102394.28;4923492;28;125723;-81
2023/10/06 02:23:37;;;;;;;;;;;;;;;16.33;54.83;102402.31;4930508;28;123788;-80
2023/10/06 02:26:09;;;;;;;;;;;;;;;16.32;54.81;102392.56;4931967;28;113706;-82
2023/10/06 02:28:43;;;;;;;;;;;;;;;16.32;54.83;102405.94;4934228;28;112718;-81
2023/10/06 02:31:11;;;;;;;;;;;;;;;16.30;54.70;102394.44;4939465;28;123832;-80
2023/10/06 02:33:39;;;;;;;;;;;;;;;16.28;54.73;102397.19;4934246;28;125631;-81
2023/10/06 02:36:17;;;;;;;;;;;;;;;16.28;54.69;102385.63;4944016;28;114181;-81
2023/10/06 02:38:48;;;;;;;;;;;;;;;16.27;54.69;102399.91;4942962;28;113373;-81
2023/10/06 02:41:19;;;;;;;;;;;;;;;16.25;54.79;102386.63;4944981;28;124080;-81
2023/10/06 02:43:47;;;;;;;;;;;;;;;16.25;54.98;102385.75;4957685;28;123374;-80
2023/10/06 02:46:15;;;;;;;;;;;;;;;16.25;54.80;102380.41;4937233;28;115620;-81
2023/10/06 02:48:48;;;;;;;;;;;;;;;16.24;54.91;102384.03;4952218;28;113733;-81
2023/10/06 02:51:32;;;;;;;;;;;;;;;16.23;54.96;102377.78;4941743;28;123461;-81
2023/10/06 02:56:44;;;;;;;;;;;;;;;16.21;55.00;102389.50;4937759;28;114960;-82
2023/10/06 02:59:28;;;;;;;;;;;;;;;16.19;54.79;102391.38;4938718;28;113698;-82
2023/10/06 03:01:57;;;;;;;;;;;;;;;16.18;54.96;102384.28;4937368;28;124453;-82
2023/10/06 03:04:26;;;;;;;;;;;;;;;16.17;54.95;102377.22;4938095;28;125816;-82
2023/10/06 03:06:58;;;;;;;;;;;;;;;16.17;55.10;102366.53;4921763;28;115400;-81
2023/10/06 03:09:43;;;;;;;;;;;;;;;16.18;55.02;102378.94;4927637;28;113928;-82
2023/10/06 03:12:25;;;;;;;;;;;;;;;16.17;54.88;102377.22;4933342;28;124538;-82
2023/10/06 03:14:56;;;;;;;;;;;;;;;16.15;54.96;102375.47;4931107;28;124322;-81
2023/10/06 03:17:23;;;;;;;;;;;;;;;16.15;55.14;102374.59;4931010;28;113565;-82
2023/10/06 03:20:08;;;;;;;;;;;;;;;16.15;54.97;102375.47;4901830;28;112757;-81
2023/10/06 03:22:37;;;;;;;;;;;;;;;16.15;55.19;102370.13;4929458;28;126593;-81
2023/10/06 03:25:17;;;;;;;;;;;;;;;16.14;55.06;102363.06;4933435;28;123248;-82
2023/10/06 03:27:49;;;;;;;;;;;;;;;16.14;55.08;102359.47;4928302;28;114036;-81
2023/10/06 03:30:26;;;;;;;;;;;;;;;16.12;55.14;102359.59;4942910;28;114404;-82
2023/10/06 03:32:54;;;;;;;;;;;;;;;16.10;55.10;102356.06;4949764;28;122859;-81
2023/10/06 03:35:23;;;;;;;;;;;;;;;16.09;54.85;102367.72;4930458;28;124872;-81
2023/10/06 03:37:53;;;;;;;;;;;;;;;16.09;55.18;102359.69;4930933;28;115504;-81
2023/10/06 03:40:30;;;;;;;;;;;;;;;16.09;55.23;102365.06;4930578;28;114791;-81
2023/10/06 03:43:00;;;;;;;;;;;;;;;16.09;55.08;102359.69;4926753;28;124341;-82
2023/10/06 03:45:30;;;;;;;;;;;;;;;16.09;55.16;102362.38;4950542;28;125255;-81
2023/10/06 03:48:13;;;;;;;;;;;;;;;16.10;55.17;102356.06;4944653;28;116473;-81
2023/10/06 03:50:43;;;;;;;;;;;;;;;16.09;55.01;102354.34;4939310;28;115976;-81
2023/10/06 03:53:12;;;;;;;;;;;;;;;16.08;55.18;102352.59;4965556;28;124351;-81
2023/10/06 03:55:45;;;;;;;;;;;;;;;16.07;54.96;102345.53;4950725;28;124075;-80
2023/10/06 03:58:14;;;;;;;;;;;;;;;16.06;55.11;102348.28;4924130;28;115098;-82
2023/10/06 04:00:47;;;;;;;;;;;;;;;16.06;55.15;102343.78;4949961;28;113959;-81
2023/10/06 04:03:17;;;;;;;;;;;;;;;16.05;55.15;102335.84;4947210;28;124362;-80
2023/10/06 04:05:45;;;;;;;;;;;;;;;16.03;55.18;102335.03;4950894;28;125568;-82
2023/10/06 04:08:15;;;;;;;;;;;;;;;16.03;55.23;102338.59;4963397;28;115179;-81
2023/10/06 04:10:44;;;;;;;;;;;;;;;16.01;55.04;102329.78;4955969;28;111979;-81
2023/10/06 04:13:12;;;;;;;;;;;;;;;16.00;55.26;102338.72;4948738;28;124881;-82
2023/10/06 04:15:39;;;;;;;;;;;;;;;16.00;55.24;102333.38;4950523;28;124098;-82
2023/10/06 04:18:10;;;;;;;;;;;;;;;15.97;55.07;102333.50;4944001;28;113974;-81
2023/10/06 04:20:39;;;;;;;;;;;;;;;15.95;55.28;102336.28;4916759;28;115262;-82
2023/10/06 04:23:07;;;;;;;;;;;;;;;15.95;55.11;102335.38;4949591;28;125059;-82
2023/10/06 04:25:37;;;;;;;;;;;;;;;15.94;55.06;102344.34;4950065;28;124213;-81
2023/10/06 04:28:08;;;;;;;;;;;;;;;15.92;55.18;102348.88;4914080;28;113292;-81
2023/10/06 04:30:36;;;;;;;;;;;;;;;15.91;55.17;102349.81;4942818;28;114620;-82
2023/10/06 04:33:05;;;;;;;;;;;;;;;15.88;55.34;102349.94;4949082;28;125993;-82
2023/10/06 04:35:33;;;;;;;;;;;;;;;15.88;55.29;102360.63;4950050;28;125478;-81
2023/10/06 04:38:00;;;;;;;;;;;;;;;15.86;55.32;102347.34;4932363;28;115510;-81
2023/10/06 04:40:28;;;;;;;;;;;;;;;15.85;55.35;102344.75;4928761;28;115108;-82
2023/10/06 04:42:56;;;;;;;;;;;;;;;15.85;55.14;102342.06;4946773;28;125404;-82
2023/10/06 04:45:24;;;;;;;;;;;;;;;15.85;55.21;102344.75;4949034;28;124228;-82
2023/10/06 04:47:55;;;;;;;;;;;;;;;15.83;55.26;102335.94;4948970;28;115739;-82
2023/10/06 04:50:23;;;;;;;;;;;;;;;15.80;55.14;102330.69;4952872;28;113994;-81
2023/10/06 04:52:49;;;;;;;;;;;;;;;15.80;55.26;102336.06;4926541;28;123557;-81
2023/10/06 04:55:16;;;;;;;;;;;;;;;15.77;55.32;102321.88;4936139;28;124449;-81
2023/10/06 04:57:44;;;;;;;;;;;;;;;15.75;55.25;102323.75;4947154;28;114679;-81
2023/10/06 05:00:15;;;;;;;;;;;;;;;15.74;55.24;102327.34;4955037;28;112549;-81
2023/10/06 05:02:47;;;;;;;;;;;;;;;15.73;55.37;102320.28;4953734;28;123836;-82
2023/10/06 05:05:16;;;;;;;;;;;;;;;15.72;55.40;102318.50;4938272;28;123923;-82
2023/10/06 05:07:45;;;;;;;;;;;;;;;15.71;55.32;102310.59;4952307;28;115415;-81
2023/10/06 05:10:12;;;;;;;;;;;;;;;15.69;55.33;102307.97;4951912;28;113939;-81
2023/10/06 05:12:42;;;;;;;;;;;;;;;15.68;55.26;102311.56;4923246;28;123461;-82
2023/10/06 05:15:14;;;;;;;;;;;;;;;15.67;55.42;102314.31;4947028;28;124372;-81
2023/10/06 05:17:41;;;;;;;;;;;;;;;15.66;55.34;102321.44;4917493;28;114437;-81
2023/10/06 05:20:19;;;;;;;;;;;;;;;15.65;55.25;102322.41;4953425;28;114541;-82
2023/10/06 05:22:48;;;;;;;;;;;;;;;15.64;55.48;102326.00;4939808;28;123273;-81
2023/10/06 05:25:19;;;;;;;;;;;;;;;15.65;55.56;102322.41;4952694;28;124839;-81
2023/10/06 05:27:47;;;;;;;;;;;;;;;15.66;55.41;102328.59;4950344;28;115501;-80
2023/10/06 05:30:14;;;;;;;;;;;;;;;15.67;55.53;102325.88;4938937;28;114604;-81
2023/10/06 05:32:42;;;;;;;;;;;;;;;15.68;55.50;102332.94;4938734;28;123491;-81
2023/10/06 05:35:13;;;;;;;;;;;;;;;15.68;55.57;102332.94;4944242;28;124285;-81
2023/10/06 05:37:42;;;;;;;;;;;;;;;15.70;55.53;102331.06;4924873;28;114483;-81
2023/10/06 05:40:15;;;;;;;;;;;;;;;15.70;55.39;102336.41;4947770;28;114452;-80
2023/10/06 05:42:43;;;;;;;;;;;;;;;15.71;55.65;102332.81;4945438;28;124711;-82
2023/10/06 05:45:15;;;;;;;;;;;;;;;15.73;55.51;102330.97;4935536;28;123983;-82
2023/10/06 05:47:45;;;;;;;;;;;;;;;15.73;55.49;102330.97;4947911;28;115252;-81
2023/10/06 05:50:18;;;;;;;;;;;;;;;15.75;55.51;102329.09;4954035;28;114590;-81
2023/10/06 05:52:51;;;;;;;;;;;;;;;15.75;55.46;102315.75;4951140;28;124318;-82
2023/10/06 05:55:19;;;;;;;;;;;;;;;15.75;55.58;102310.41;4950989;28;124116;-81
2023/10/06 05:57:55;;;;;;;;;;;;;;;15.77;55.35;102316.56;4953816;28;114475;-81
2023/10/06 06:00:27;;;;;;;;;;;;;;;15.77;55.55;102311.22;4948927;28;114814;-81
2023/10/06 06:02:57;;;;;;;;;;;;;;;15.78;55.34;102317.41;4959514;28;124421;-81
2023/10/06 06:05:29;;;;;;;;;;;;;;;15.80;55.48;102309.34;4942465;28;124093;-80
2023/10/06 06:08:00;;;;;;;;;;;;;;;15.80;55.30;102312.00;4951425;28;113668;-81
2023/10/06 06:10:30;;;;;;;;;;;;;;;15.80;55.48;102314.69;4953371;28;114173;-80
2023/10/06 06:13:00;;;;;;;;;;;;;;;15.80;55.44;102314.69;4951240;28;124050;-81
2023/10/06 06:15:27;;;;;;;;;;;;;;;15.82;55.58;102318.16;4967232;28;122838;-80
2023/10/06 06:17:54;;;;;;;;;;;;;;;15.83;55.53;102320.75;4951637;28;115558;-80
2023/10/06 06:20:24;;;;;;;;;;;;;;;15.86;55.48;102319.75;4952966;28;114802;-81
2023/10/06 06:23:02;;;;;;;;;;;;;;;15.88;55.40;102328.56;4966866;28;124134;-80
2023/10/06 06:25:29;;;;;;;;;;;;;;;15.89;55.55;102319.63;4951808;28;124553;-81
2023/10/06 06:27:59;;;;;;;;;;;;;;;15.91;55.52;102317.75;4945129;28;115210;-80
2023/10/06 06:30:26;;;;;;;;;;;;;;;15.94;55.58;102317.63;4962637;28;114368;-80
2023/10/06 06:32:54;;;;;;;;;;;;;;;15.97;55.73;102325.50;4951250;28;125456;-81
2023/10/06 06:35:22;;;;;;;;;;;;;;;16.02;55.74;102325.31;4951678;28;123928;-82
2023/10/06 06:37:51;;;;;;;;;;;;;;;16.07;55.74;102328.66;4953063;28;114888;-81
2023/10/06 06:40:19;;;;;;;;;;;;;;;16.12;55.69;102332.84;4952349;28;113889;-81
2023/10/06 06:42:47;;;;;;;;;;;;;;;16.17;55.75;102329.09;4949181;28;124003;-80
2023/10/06 06:45:15;;;;;;;;;;;;;;;16.21;55.71;102330.69;4949098;28;124088;-81
2023/10/06 06:47:42;;;;;;;;;;;;;;;16.24;55.54;102335.91;4934354;28;113871;-81
2023/10/06 06:50:13;;;;;;;;;;;;;;;16.27;55.78;102333.06;4916908;28;114984;-81
2023/10/06 06:52:41;;;;;;;;;;;;;;;16.31;55.52;102332.88;4935607;28;124711;-81
2023/10/06 06:55:14;;;;;;;;;;;;;;;16.34;55.64;102331.88;4933472;28;123063;-81
2023/10/06 06:57:49;;;;;;;;;;;;;;;16.38;55.66;102333.47;4933851;28;114674;-80
2023/10/06 07:00:22;;;;;;;;;;;;;;;16.42;55.68;102331.53;4947102;28;113990;-81
2023/10/06 07:02:51;;;;;;;;;;;;;;;16.44;55.51;102322.47;4932797;28;123772;-80
2023/10/06 07:05:19;;;;;;;;;;;;;;;16.45;55.59;102329.56;4947613;28;124269;-81
2023/10/06 07:07:47;;;;;;;;;;;;;;;16.49;55.61;102325.81;4931816;28;115275;-80
2023/10/06 07:10:19;;;;;;;;;;;;;;;16.50;55.53;102322.22;4930564;28;115710;-81
2023/10/06 07:12:50;;;;;;;;;;;;;;;16.54;55.52;102323.81;4932215;28;123376;-81
2023/10/06 07:15:18;;;;;;;;;;;;;;;16.55;55.40;102325.53;4945544;28;124967;-81
2023/10/06 07:17:49;;;;;;;;;;;;;;;16.58;55.43;102323.66;4934154;28;116019;-81
2023/10/06 07:20:18;;;;;;;;;;;;;;;16.60;55.48;102321.78;4934447;28;114366;-81
2023/10/06 07:22:45;;;;;;;;;;;;;;;16.63;55.55;102321.63;4934262;28;122860;-82
2023/10/06 07:25:15;;;;;;;;;;;;;;;16.66;55.52;102326.84;4935779;28;123496;-81
2023/10/06 07:27:43;;;;;;;;;;;;;;;16.67;55.41;102323.22;4956132;28;114642;-81
2023/10/06 07:30:11;;;;;;;;;;;;;;;16.68;55.37;102331.16;4934989;28;113284;-81
2023/10/06 07:32:40;;;;;;;;;;;;;;;16.69;55.36;102337.41;4946979;28;124133;-81
2023/10/06 07:35:08;;;;;;;;;;;;;;;16.71;55.66;102331.03;4959250;28;125203;-82
2023/10/06 07:37:36;;;;;;;;;;;;;;;16.75;55.57;102329.09;4943989;28;114918;-81
2023/10/06 07:40:04;;;;;;;;;;;;;;;16.79;55.62;102333.34;4949841;28;114476;-81
2023/10/06 07:42:31;;;;;;;;;;;;;;;16.84;55.60;102326.00;4949643;28;124605;-81
2023/10/06 07:44:58;;;;;;;;;;;;;;;16.91;55.48;102332.81;4959157;28;124873;-82
2023/10/06 07:47:27;;;;;;;;;;;;;;;16.98;55.55;102335.19;4914337;28;112167;-82
2023/10/06 07:49:55;;;;;;;;;;;;;;;17.02;55.53;102334.09;4944443;28;113664;-81
2023/10/06 07:52:22;;;;;;;;;;;;;;;17.06;55.58;102341.03;4937403;28;124526;-82
2023/10/06 07:54:49;;;;;;;;;;;;;;;17.13;55.64;102353.19;4942185;28;124241;-81
2023/10/06 07:57:16;;;;;;;;;;;;;;;17.19;55.68;102352.88;4937105;28;115661;-80
2023/10/06 07:59:43;;;;;;;;;;;;;;;17.26;55.74;102354.31;4944450;28;115122;-82
2023/10/06 08:02:10;;;;;;;;;;;;;;;17.34;55.68;102356.59;4935853;28;125049;-80
2023/10/06 08:04:37;;;;;;;;;;;;;;;17.42;55.58;102358.91;4951962;28;124556;-79
2023/10/06 08:07:04;;;;;;;;;;;;;;;17.49;55.74;102365.69;4938373;28;114895;-78
2023/10/06 08:09:32;;;;;;;;;;;;;;;17.57;55.66;102358.13;4933929;28;113786;-78
2023/10/06 08:11:59;;;;;;;;;;;;;;;17.64;55.57;102364.91;4937636;28;124117;-78
2023/10/06 08:14:28;;;;;;;;;;;;;;;17.71;55.57;102366.34;4920050;28;124570;-78
2023/10/06 08:16:55;;;;;;;;;;;;;;;17.80;55.59;102364.13;4922980;28;115341;-80
2023/10/06 08:19:22;;;;;;;;;;;;;;;17.86;55.69;102358.50;4942172;28;113840;-78
2023/10/06 08:21:49;;;;;;;;;;;;;;;17.95;55.69;102373.22;4940154;28;124088;-79
2023/10/06 08:24:16;;;;;;;;;;;;;;;18.02;55.68;102370.16;4949418;28;124494;-79
2023/10/06 08:26:43;;;;;;;;;;;;;;;18.12;55.56;102353.59;4946312;28;114700;-79
2023/10/06 08:29:10;;;;;;;;;;;;;;;18.22;55.58;102352.16;4945771;28;114097;-80
2023/10/06 08:31:38;;;;;;;;;;;;;;;18.34;55.52;102347.94;4951365;28;125138;-80
2023/10/06 08:34:05;;;;;;;;;;;;;;;18.45;55.69;102346.41;4953732;28;123820;-79
2023/10/06 08:36:33;;;;;;;;;;;;;;;18.56;55.72;102336.94;4936253;28;113561;-79
2023/10/06 08:39:00;;;;;;;;;;;;;;;18.69;55.61;102327.25;4935083;28;112948;-80
2023/10/06 08:41:35;;;;;;;;;;;;;;;18.80;55.54;102335.59;4932001;28;123334;-79
2023/10/06 08:44:02;;;;;;;;;;;;;;;18.92;55.60;102349.28;4935147;28;123263;-79
2023/10/06 08:46:31;;;;;;;;;;;;;;;19.07;55.65;102348.41;4955238;28;115964;-79
2023/10/06 08:48:58;;;;;;;;;;;;;;;19.25;55.66;102351.88;4939465;28;115084;-79
2023/10/06 08:51:26;;;;;;;;;;;;;;;19.39;55.54;102337.63;4934959;28;124455;-80
2023/10/06 08:53:55;;;;;;;;;;;;;;;19.49;55.44;102346.88;4931361;28;124328;-78
2023/10/06 08:56:22;;;;;;;;;;;;;;;19.60;55.48;102341.72;4932585;28;115213;-79
2023/10/06 08:58:51;;;;;;;;;;;;;;;19.72;55.32;102344.66;4933394;28;113445;-80
2023/10/06 09:01:18;;;;;;;;;;;;;;;19.86;55.59;102347.41;4933128;28;124557;-79
2023/10/06 09:03:49;;;;;;;;;;;;;;;19.96;55.30;102343.19;4943996;28;124137;-80
2023/10/06 09:06:16;;;;;;;;;;;;;;;20.03;55.24;102344.56;4938233;28;114925;-79
2023/10/06 09:08:43;;;;;;;;;;;;;;;20.09;55.17;102353.22;4946746;28;113119;-80
2023/10/06 09:11:11;;;;;;;;;;;;;;;20.13;55.04;102358.31;4932787;28;124183;-80
2023/10/06 09:13:39;;;;;;;;;;;;;;;20.18;55.02;102349.97;4929928;28;124159;-79
2023/10/06 09:16:10;;;;;;;;;;;;;;;20.19;55.01;102349.00;4918915;28;113812;-80
2023/10/06 09:18:39;;;;;;;;;;;;;;;20.20;54.95;102350.72;4933550;28;113628;-78
2023/10/06 09:21:12;;;;;;;;;;;;;;;20.21;54.88;102341.69;4935511;28;125651;-78
2023/10/06 09:23:43;;;;;;;;;;;;;;;20.24;54.96;102341.50;4932747;28;124623;-78
2023/10/06 09:26:11;;;;;;;;;;;;;;;20.31;54.88;102342.00;4932147;28;113912;-79
2023/10/06 09:28:52;;;;;;;;;;;;;;;20.39;55.00;102343.22;4917465;28;115164;-78
2023/10/06 09:31:36;;;;;;;;;;;;;;;20.50;55.07;102341.72;4924866;28;124330;-78
2023/10/06 09:34:11;;;;;;;;;;;;;;;20.60;54.95;102342.88;4951228;28;123930;-78
2023/10/06 09:36:42;;;;;;;;;;;;;;;20.66;54.97;102331.72;4951096;28;116008;-79
2023/10/06 09:39:24;;;;;;;;;;;;;;;20.74;55.02;102328.56;4945696;28;114557;-78
2023/10/06 09:41:54;;;;;;;;;;;;;;;20.83;54.97;102316.31;4964906;28;124454;-79
2023/10/06 09:44:22;;;;;;;;;;;;;;;20.89;55.04;102315.88;4950818;28;125286;-79
2023/10/06 09:46:52;;;;;;;;;;;;;;;20.97;54.92;102308.19;4948516;28;113726;-79
2023/10/06 09:49:20;;;;;;;;;;;;;;;21.04;55.00;102300.56;4967585;28;114559;-79
2023/10/06 09:51:50;;;;;;;;;;;;;;;21.12;54.90;102306.31;4924332;28;125689;-78
2023/10/06 09:54:19;;;;;;;;;;;;;;;21.17;54.93;102302.34;4942459;28;123658;-78
2023/10/06 09:56:47;;;;;;;;;;;;;;;21.27;54.93;102307.97;4953022;28;115413;-79
2023/10/06 09:59:15;;;;;;;;;;;;;;;21.37;55.05;102309.06;4934913;28;113394;-77
2023/10/06 10:01:42;;;;;;;;;;;;;;;21.48;54.90;102319.16;4934479;28;123334;-79
2023/10/06 10:04:11;;;;;;;;;;;;;;;21.58;54.83;102309.47;4916036;28;124307;-79
2023/10/06 10:06:45;;;;;;;;;;;;;;;21.67;54.83;102313.38;4940048;28;114551;-78
2023/10/06 10:09:16;;;;;;;;;;;;;;;21.76;54.80;102306.50;4934165;28;113372;-78
2023/10/06 10:11:50;;;;;;;;;;;;;;;21.82;54.65;102299.81;4935321;28;126358;-79
2023/10/06 10:14:18;;;;;;;;;;;;;;;21.85;54.54;102300.47;4938813;28;123777;-78
2023/10/06 10:16:49;;;;;;;;;;;;;;;21.89;54.57;102296.59;4916470;28;115440;-78
2023/10/06 10:19:18;;;;;;;;;;;;;;;21.93;54.54;102286.44;4935707;28;113652;-79
2023/10/06 10:21:46;;;;;;;;;;;;;;;21.99;54.47;102290.53;4932140;28;124157;-78
2023/10/06 10:24:17;;;;;;;;;;;;;;;22.04;54.51;102288.38;4936657;28;123989;-78
2023/10/06 10:27:12;;;;;;;;;;;;;;;22.11;54.53;102285.16;4934556;28;115552;-78
2023/10/06 10:29:41;;;;;;;;;;;;;;;22.19;54.61;102281.91;4933209;28;115735;-78
2023/10/06 10:32:11;;;;;;;;;;;;;;;22.24;54.49;102285.13;4936467;28;123569;-79
2023/10/06 10:34:57;;;;;;;;;;;;;;;22.29;54.33;102280.28;4943271;28;124532;-78
2023/10/06 10:37:24;;;;;;;;;;;;;;;22.33;54.34;102279.09;4950007;28;115213;-79
2023/10/06 10:39:52;;;;;;;;;;;;;;;22.39;54.39;102287.72;4945412;28;114026;-78
2023/10/06 10:42:36;;;;;;;;;;;;;;;22.46;54.35;102286.31;4950611;28;124414;-78
2023/10/06 10:45:21;;;;;;;;;;;;;;;22.51;54.36;102281.44;4938734;28;123445;-78
2023/10/06 10:47:49;;;;;;;;;;;;;;;22.57;54.22;102280.13;4933619;28;114913;-79
2023/10/06 10:50:16;;;;;;;;;;;;;;;22.62;54.38;102278.81;4937574;28;112025;-79
2023/10/06 10:52:44;;;;;;;;;;;;;;;22.67;54.28;102287.44;4940359;28;125586;-77
2023/10/06 10:55:13;;;;;;;;;;;;;;;22.73;54.22;102291.50;4927817;28;124019;-78
2023/10/06 10:57:44;;;;;;;;;;;;;;;22.77;54.01;102281.34;4931458;28;114572;-79
2023/10/06 11:00:13;;;;;;;;;;;;;;;22.81;54.03;102267.53;4944574;28;113126;-78
2023/10/06 11:02:44;;;;;;;;;;;;;;;22.86;54.26;102270.72;4930279;28;124866;-79
2023/10/06 11:05:11;;;;;;;;;;;;;;;22.93;54.22;102265.72;4930761;28;123979;-77
2023/10/06 11:07:39;;;;;;;;;;;;;;;22.99;54.11;102254.47;4934225;28;114273;-78
2023/10/06 11:10:08;;;;;;;;;;;;;;;23.05;53.96;102263.97;4932530;28;113024;-78
2023/10/06 11:12:35;;;;;;;;;;;;;;;23.06;53.73;102271.97;4932619;28;124437;-77
2023/10/06 11:15:05;;;;;;;;;;;;;;;23.09;53.90;102277.16;4918042;28;123312;-79
2023/10/06 11:17:32;;;;;;;;;;;;;;;23.11;53.80;102269.78;4940220;28;116714;-78
2023/10/06 11:20:01;;;;;;;;;;;;;;;23.16;53.90;102271.28;4940680;28;114080;-77
2023/10/06 11:22:32;;;;;;;;;;;;;;;23.19;53.67;102279.13;4948879;28;124650;-78
2023/10/06 11:25:03;;;;;;;;;;;;;;;23.18;53.79;102263.91;4932286;28;124212;-78
2023/10/06 11:27:30;;;;;;;;;;;;;;;23.18;53.64;102274.72;4945158;28;115328;-78
2023/10/06 11:30:00;;;;;;;;;;;;;;;23.20;53.87;102267.34;4941070;28;113865;-79
2023/10/06 11:32:28;;;;;;;;;;;;;;;23.23;53.71;102268.00;4925899;28;125718;-78
2023/10/06 11:34:55;;;;;;;;;;;;;;;23.23;53.75;102272.53;4936038;28;123940;-78
2023/10/06 11:37:24;;;;;;;;;;;;;;;23.23;53.51;102267.13;4930348;28;114684;-78
2023/10/06 11:39:53;;;;;;;;;;;;;;;23.23;53.62;102253.63;4930958;28;113876;-78
2023/10/06 11:42:23;;;;;;;;;;;;;;;23.24;53.69;102271.53;4928668;28;123680;-78
2023/10/06 11:44:54;;;;;;;;;;;;;;;23.23;53.32;102256.31;4942583;28;125273;-78
2023/10/06 11:47:41;;;;;;;;;;;;;;;23.23;53.35;102261.72;4943464;28;114757;-78
2023/10/06 11:50:20;;;;;;;;;;;;;;;23.23;53.37;102257.16;4927742;28;112795;-78
2023/10/06 11:52:48;;;;;;;;;;;;;;;23.25;53.53;102252.50;4929164;28;123280;-80
2023/10/06 11:55:26;;;;;;;;;;;;;;;23.26;53.59;102253.38;4933747;28;124540;-79
2023/10/06 11:57:54;;;;;;;;;;;;;;;23.26;53.38;102256.94;4941983;28;115057;-78
2023/10/06 12:00:34;;;;;;;;;;;;;;;23.29;53.42;102250.44;4939096;28;113652;-78
2023/10/06 12:03:01;;;;;;;;;;;;;;;23.35;53.62;102243.69;4938580;28;123907;-78
2023/10/06 12:05:30;;;;;;;;;;;;;;;23.36;53.30;102251.69;4943945;28;123430;-78
2023/10/06 12:08:03;;;;;;;;;;;;;;;23.32;53.21;102234.00;4931126;28;114638;-79
2023/10/06 12:10:32;;;;;;;;;;;;;;;23.28;53.29;102232.47;4939778;28;114867;-78
2023/10/06 12:13:00;;;;;;;;;;;;;;;23.25;53.12;102238.13;4939780;28;125467;-78
2023/10/06 12:15:29;;;;;;;;;;;;;;;23.23;53.22;102240.09;4947723;28;124179;-78
2023/10/06 12:17:57;;;;;;;;;;;;;;;23.23;53.14;102237.41;4963779;28;115445;-78
2023/10/06 12:20:24;;;;;;;;;;;;;;;23.23;53.09;102240.09;4949756;28;113292;-78
2023/10/06 12:22:53;;;;;;;;;;;;;;;23.27;53.19;102241.59;4959561;28;125145;-78
2023/10/06 12:25:23;;;;;;;;;;;;;;;23.29;53.35;102235.06;4940398;28;124003;-79
2023/10/06 12:27:50;;;;;;;;;;;;;;;23.33;53.28;102241.09;4929426;28;114567;-78
2023/10/06 12:30:18;;;;;;;;;;;;;;;23.34;53.38;102226.63;4928680;28;114722;-78
2023/10/06 12:32:48;;;;;;;;;;;;;;;23.41;53.36;102227.84;4934714;28;125394;-78
2023/10/06 12:35:18;;;;;;;;;;;;;;;23.46;53.37;102225.66;4931029;28;124663;-78
2023/10/06 12:37:46;;;;;;;;;;;;;;;23.52;53.48;102225.16;4930452;28;113574;-78
2023/10/06 12:40:14;;;;;;;;;;;;;;;23.62;53.45;102219.03;4925475;28;112885;-78
2023/10/06 12:42:42;;;;;;;;;;;;;;;23.70;53.27;102211.19;4928503;28;125583;-78
2023/10/06 12:45:12;;;;;;;;;;;;;;;23.74;53.20;102218.06;4932040;28;124664;-78